Time;durP1;ratioP1;P1;durP2;ratioP2;P2;SDS_P1;SDS_P2;PMS_P1;PMS_P2;Temp;Humidity;BMP_temperature;BMP_pressure;BME280_temperature;BME280_humidity;BME280_pressure;Samples;Min_cycle;Max_cycle;Signal;HPM_P1;HPM_P2
2021/12/24 00:02:11;;;;;;;29.50;20.13;;;;;;;-1.82;87.20;96866.19;6127225;28;20730;-88
2021/12/24 00:05:14;;;;;;;30.73;20.07;;;;;;;-1.82;87.66;96851.53;6115890;28;20218;-88
2021/12/24 00:08:16;;;;;;;31.83;19.60;;;;;;;-1.81;87.08;96834.25;6133194;28;20257;-88
2021/12/24 00:11:18;;;;;;;30.00;21.17;;;;;;;-1.80;87.14;96825.59;6116216;28;20321;-87
2021/12/24 00:14:22;;;;;;;32.97;22.17;;;;;;;-1.79;87.67;96824.66;6098584;28;20306;-88
2021/12/24 00:17:29;;;;;;;35.53;23.00;;;;;;;-1.81;87.32;96813.56;6088790;29;20236;-88
2021/12/24 00:21:36;;;;;;;36.27;24.13;;;;;;;-1.85;87.34;96820.63;6117478;28;20267;-88
2021/12/24 00:37:23;;;;;;;41.80;25.60;;;;;;;-2.03;88.11;96798.19;6137250;28;20241;-88
2021/12/24 00:40:25;;;;;;;48.37;28.77;;;;;;;-2.03;87.95;96806.78;6132409;28;20706;-89
2021/12/24 00:43:27;;;;;;;44.40;27.23;;;;;;;-2.00;87.98;96795.47;6131169;28;20230;-88
2021/12/24 00:46:29;;;;;;;44.90;27.33;;;;;;;-1.96;87.68;96807.31;6128879;29;20238;-87
2021/12/24 00:49:31;;;;;;;54.23;29.97;;;;;;;-1.91;87.66;96789.88;6107814;29;20262;-87
2021/12/24 00:52:46;;;;;;;46.67;31.20;;;;;;;-1.97;87.75;96783.22;6132697;28;20236;-87
2021/12/24 00:55:49;;;;;;;46.20;30.53;;;;;;;-1.99;87.80;96766.94;6130705;28;20246;-88
2021/12/24 00:58:51;;;;;;;53.50;32.33;;;;;;;-1.98;87.94;96778.13;6111955;29;20734;-87
2021/12/24 01:01:53;;;;;;;54.40;33.73;;;;;;;-1.97;88.21;96767.72;6140378;28;20318;-87
2021/12/24 01:04:55;;;;;;;48.60;32.53;;;;;;;-1.91;88.25;96759.69;6124061;28;20369;-88
2021/12/24 01:07:58;;;;;;;50.17;32.43;;;;;;;-1.81;88.59;96772.19;6115488;28;20238;-88
2021/12/24 01:11:04;;;;;;;44.37;27.67;;;;;;;-1.59;89.13;96773.69;6126125;28;20239;-89
2021/12/24 01:14:06;;;;;;;45.00;28.70;;;;;;;-1.04;90.06;96790.94;6111039;28;20634;-88
2021/12/24 01:17:32;;;;;;;22.17;11.73;;;;;;;-0.01;91.31;96791.72;6115719;28;20702;-88
2021/12/24 01:23:48;;;;;;;32.03;15.67;;;;;;;1.60;91.63;96792.19;6131607;28;20230;-88
2021/12/24 01:30:06;;;;;;;21.67;11.13;;;;;;;3.12;91.26;96774.03;6111788;28;20243;-88
2021/12/24 01:42:55;;;;;;;6.43;4.93;;;;;;;4.34;84.08;96735.25;6137281;28;20223;-88
2021/12/24 01:45:59;;;;;;;5.77;4.30;;;;;;;4.03;85.24;96741.78;6118418;28;20315;-89
2021/12/24 01:49:02;;;;;;;11.07;4.87;;;;;;;4.15;84.68;96746.16;6122919;28;20227;-89
2021/12/24 01:52:06;;;;;;;7.67;4.87;;;;;;;4.45;83.72;96733.56;6096474;28;20309;-88
2021/12/24 01:55:12;;;;;;;6.37;4.60;;;;;;;4.54;83.56;96767.81;6120748;28;20237;-89
2021/12/24 01:58:21;;;;;;;9.00;5.27;;;;;;;4.91;81.81;96750.31;6120463;28;20608;-89
2021/12/24 02:01:27;;;;;;;7.03;4.73;;;;;;;5.37;80.25;96766.94;6135767;28;20275;-89
2021/12/24 02:04:29;;;;;;;7.00;4.53;;;;;;;5.67;77.89;96734.19;6119487;28;20335;-89
2021/12/24 02:07:31;;;;;;;6.40;4.53;;;;;;;5.59;78.83;96728.72;6144591;28;20370;-89
2021/12/24 02:10:34;;;;;;;6.03;4.30;;;;;;;5.50;78.63;96732.84;6135288;28;20284;-89
2021/12/24 02:13:39;;;;;;;7.57;4.70;;;;;;;5.80;77.70;96738.38;6136359;28;20240;-89
2021/12/24 02:30:24;;;;;;;7.13;4.27;;;;;;;5.46;78.61;96705.25;6127380;28;20235;-89
2021/12/24 02:33:26;;;;;;;7.43;4.70;;;;;;;5.56;77.64;96691.34;6106892;28;20234;-89
2021/12/24 02:36:28;;;;;;;6.47;4.93;;;;;;;5.76;76.35;96674.13;6094113;28;20703;-90
2021/12/24 02:39:30;;;;;;;5.87;4.27;;;;;;;5.67;77.69;96676.63;6087830;29;20264;-89
2021/12/24 02:42:34;;;;;;;8.30;4.90;;;;;;;5.70;77.41;96668.50;6072453;29;20232;-89
2021/12/24 02:45:40;;;;;;;7.30;5.10;;;;;;;5.66;77.13;96678.41;6107737;28;20333;-89
2021/12/24 02:55:14;;;;;;;8.70;5.27;;;;;;;5.59;77.00;96695.50;6108739;28;20390;-89
2021/12/24 02:58:17;;;;;;;8.00;5.53;;;;;;;5.71;76.70;96651.84;6110920;28;20319;-89
2021/12/24 03:01:25;;;;;;;7.17;5.00;;;;;;;5.62;77.38;96649.94;6110039;28;20324;-89
2021/12/24 03:04:28;;;;;;;9.07;5.50;;;;;;;5.60;76.83;96649.22;6100364;28;20266;-89
2021/12/24 03:07:30;;;;;;;7.40;5.20;;;;;;;5.60;76.89;96639.59;6093972;28;20602;-89
2021/12/24 03:10:35;;;;;;;6.63;4.33;;;;;;;5.44;78.00;96634.72;6121072;28;20269;-90
2021/12/24 03:13:39;;;;;;;5.73;3.90;;;;;;;5.34;78.22;96640.75;6133727;28;20242;-89
2021/12/24 03:16:46;;;;;;;5.00;4.30;;;;;;;5.33;78.52;96633.84;6098978;28;20247;-89
2021/12/24 03:19:48;;;;;;;6.77;4.67;;;;;;;5.39;78.41;96617.72;6142773;28;20241;-89
2021/12/24 03:26:11;;;;;;;5.80;4.50;;;;;;;5.73;78.40;96601.06;6148583;28;20238;-90
2021/12/24 03:29:17;;;;;;;5.67;3.80;;;;;;;5.99;77.52;96606.06;6123196;28;20619;-88
2021/12/24 03:32:21;;;;;;;4.77;3.70;;;;;;;5.97;77.56;96610.59;6116418;28;20227;-90
2021/12/24 03:35:23;;;;;;;5.73;3.70;;;;;;;6.11;77.14;96611.16;6113260;28;20237;-90
2021/12/24 03:38:25;;;;;;;6.23;3.40;;;;;;;6.15;77.39;96604.72;6133559;28;20258;-90
2021/12/24 03:41:27;;;;;;;5.43;2.93;;;;;;;5.95;76.98;96602.84;6132710;28;20235;-89
2021/12/24 03:44:37;;;;;;;4.37;3.17;;;;;;;5.62;77.48;96598.44;6133381;28;20243;-90
2021/12/24 03:47:41;;;;;;;4.30;3.10;;;;;;;5.59;78.51;96592.63;6132731;28;20270;-89
2021/12/24 03:51:21;;;;;;;4.33;2.87;;;;;;;5.73;78.31;96601.06;6128159;28;20294;-90
2021/12/24 03:57:43;;;;;;;2.63;2.30;;;;;;;6.46;75.97;96589.16;6108824;29;20600;-90
2021/12/24 04:00:48;;;;;;;4.47;2.57;;;;;;;6.86;74.37;96587.56;6122465;28;20725;-91
2021/12/24 04:03:57;;;;;;;4.47;2.00;;;;;;;7.15;73.17;96564.13;6121917;29;20689;-90
2021/12/24 04:07:19;;;;;;;5.13;2.80;;;;;;;7.50;72.59;96594.41;6131906;28;20243;-90
2021/12/24 04:10:40;;;;;;;2.40;1.87;;;;;;;7.67;72.39;96578.91;6123942;28;20250;-90
2021/12/24 04:13:51;;;;;;;3.70;2.07;;;;;;;7.85;71.70;96581.72;6116689;28;20243;-90
2021/12/24 04:16:53;;;;;;;2.37;2.13;;;;;;;8.08;71.77;96566.56;6127495;28;20724;-89
2021/12/24 04:26:38;;;;;;;3.23;2.10;;;;;;;8.38;70.54;96536.78;6132074;28;20382;-90
2021/12/24 04:29:40;;;;;;;2.20;1.70;;;;;;;8.45;70.61;96525.56;6133493;28;20265;-91
2021/12/24 04:32:53;;;;;;;2.00;1.63;;;;;;;8.51;70.36;96518.91;6129864;28;20241;-90
2021/12/24 04:36:13;;;;;;;6.60;2.37;;;;;;;8.64;69.88;96531.78;6127264;28;20274;-90
2021/12/24 05:06:05;;;;;;;2.37;1.77;;;;;;;8.41;71.81;96575.91;6117775;28;20348;-90
2021/12/24 05:09:10;;;;;;;1.97;1.70;;;;;;;8.25;72.50;96573.78;6116214;28;20253;-90
2021/12/24 05:12:13;;;;;;;4.97;2.00;;;;;;;7.97;73.34;96582.44;6130505;28;20289;-90
2021/12/24 05:15:16;;;;;;;2.80;2.10;;;;;;;7.99;73.32;96586.59;6129571;28;20210;-90
2021/12/24 05:22:30;;;;;;;2.73;1.70;;;;;;;7.93;74.06;96575.78;6139153;28;20245;-90
2021/12/24 05:25:43;;;;;;;2.27;2.03;;;;;;;7.98;72.74;96582.31;6134067;28;20238;-90
2021/12/24 05:28:45;;;;;;;3.70;2.20;;;;;;;8.26;72.01;96577.25;6113458;29;20616;-90
2021/12/24 05:31:50;;;;;;;3.10;2.40;;;;;;;8.27;71.82;96568.41;6111381;28;20243;-90
2021/12/24 05:34:52;;;;;;;3.63;2.00;;;;;;;8.20;72.12;96564.63;6114418;28;20246;-90
2021/12/24 05:37:54;;;;;;;3.17;1.60;;;;;;;8.23;71.40;96577.50;6122006;28;20322;-90
2021/12/24 05:40:57;;;;;;;4.53;2.30;;;;;;;8.18;71.82;96574.47;6141193;28;20233;-90
2021/12/24 05:44:02;;;;;;;3.27;1.90;;;;;;;8.26;71.11;96572.84;6126431;28;20726;-90
2021/12/24 05:47:04;;;;;;;2.50;2.03;;;;;;;8.24;72.09;96573.94;6107495;29;20241;-90
2021/12/24 05:50:14;;;;;;;4.80;2.00;;;;;;;8.27;71.37;96574.50;6133048;28;20599;-91
2021/12/24 05:53:16;;;;;;;2.77;1.80;;;;;;;8.27;71.58;96563.97;6111721;28;20234;-91
2021/12/24 05:56:33;;;;;;;2.37;1.90;;;;;;;8.44;70.18;96576.47;6098496;28;20765;-91
2021/12/24 05:59:46;;;;;;;5.07;2.10;;;;;;;8.36;70.25;96565.00;6118582;28;20241;-90
2021/12/24 06:02:48;;;;;;;4.63;1.90;;;;;;;8.44;70.46;96587.00;6133218;28;20241;-91
2021/12/24 06:05:51;;;;;;;3.93;1.80;;;;;;;8.51;69.94;96559.19;6146819;28;20234;-90
2021/12/24 06:08:53;;;;;;;2.30;1.87;;;;;;;8.57;69.43;96570.13;6124520;28;20721;-90
2021/12/24 06:11:55;;;;;;;2.63;1.80;;;;;;;8.44;70.02;96576.47;6126037;28;20242;-90
2021/12/24 06:15:03;;;;;;;4.07;1.70;;;;;;;8.33;70.16;96560.00;6135251;28;20730;-90
2021/12/24 06:18:11;;;;;;;2.00;1.43;;;;;;;8.51;69.70;96576.75;6119310;28;20604;-90
2021/12/24 06:21:14;;;;;;;2.63;1.60;;;;;;;8.35;70.65;96577.31;6135840;28;20300;-90
2021/12/24 06:24:18;;;;;;;3.37;1.40;;;;;;;8.20;70.98;96573.34;6135057;28;20209;-90
2021/12/24 06:27:20;;;;;;;1.67;1.30;;;;;;;8.05;71.30;96582.59;6135098;28;20682;-91
2021/12/24 06:30:27;;;;;;;3.97;2.00;;;;;;;8.14;71.19;96587.88;6135161;28;20247;-90
2021/12/24 06:33:30;;;;;;;1.73;1.60;;;;;;;8.06;71.12;96592.16;6112015;28;20315;-91
2021/12/24 06:36:35;;;;;;;3.20;1.40;;;;;;;8.03;71.86;96581.91;6144338;28;20617;-90
2021/12/24 06:39:37;;;;;;;2.50;1.60;;;;;;;8.07;70.90;96593.81;6136015;28;20699;-91
2021/12/24 06:42:39;;;;;;;4.53;2.00;;;;;;;8.41;69.64;96560.97;6133666;28;20235;-90
2021/12/24 06:45:42;;;;;;;3.57;1.60;;;;;;;8.63;69.11;96578.28;6134945;28;20725;-90
2021/12/24 06:48:45;;;;;;;3.90;2.13;;;;;;;8.74;68.29;96578.16;6128569;28;20229;-90
2021/12/24 06:51:47;;;;;;;2.57;1.60;;;;;;;8.84;68.76;96560.56;6094453;28;20773;-90
2021/12/24 06:54:49;;;;;;;2.90;1.73;;;;;;;8.99;67.34;96584.63;6110992;28;20707;-91
2021/12/24 06:57:52;;;;;;;2.10;1.60;;;;;;;8.87;67.91;96591.88;6110791;28;20753;-90
2021/12/24 07:00:54;;;;;;;2.87;1.70;;;;;;;8.97;67.61;96583.97;6094529;28;20227;-91
2021/12/24 07:03:58;;;;;;;1.77;1.57;;;;;;;8.92;68.33;96580.91;6099976;29;20678;-90
2021/12/24 07:07:00;;;;;;;2.10;1.37;;;;;;;8.91;68.35;96596.81;6115167;28;20720;-90
2021/12/24 07:10:04;;;;;;;3.97;1.60;;;;;;;9.00;68.14;96602.06;6094249;28;20719;-90
2021/12/24 07:13:06;;;;;;;2.23;1.60;;;;;;;8.99;68.59;96582.00;6094076;28;20262;-92
2021/12/24 07:16:08;;;;;;;1.97;1.40;;;;;;;8.90;69.30;96588.09;6125761;28;20221;-92
2021/12/24 07:19:11;;;;;;;4.23;1.60;;;;;;;8.73;69.53;96592.25;6125584;28;20611;-90
2021/12/24 07:22:14;;;;;;;2.33;1.40;;;;;;;8.71;69.93;96588.94;6110080;28;20227;-91
2021/12/24 07:25:16;;;;;;;2.50;1.40;;;;;;;8.79;69.46;96614.53;6110776;28;20266;-90
2021/12/24 07:28:18;;;;;;;2.27;1.70;;;;;;;8.82;69.55;96590.59;6109358;28;20239;-90
2021/12/24 07:31:20;;;;;;;2.17;1.50;;;;;;;8.72;70.05;96585.34;6110140;28;20793;-90
2021/12/24 07:34:23;;;;;;;3.27;1.77;;;;;;;8.88;68.78;96584.81;6098250;29;20236;-90
2021/12/24 07:37:25;;;;;;;2.87;1.33;;;;;;;8.91;69.04;96573.97;6103045;28;20588;-90
2021/12/24 07:40:28;;;;;;;3.07;1.67;;;;;;;8.84;69.33;96557.94;6133090;28;20694;-90
2021/12/24 07:43:30;;;;;;;1.70;1.33;;;;;;;8.84;69.22;96560.56;6133715;28;20784;-90
2021/12/24 07:46:40;;;;;;;1.47;1.33;;;;;;;8.92;68.65;96570.38;6132927;28;20225;-90
2021/12/24 07:49:44;;;;;;;1.50;1.10;;;;;;;8.94;68.91;96562.34;6125036;28;20234;-90
2021/12/24 07:52:46;;;;;;;2.13;1.50;;;;;;;8.91;69.56;96544.19;6115837;28;20238;-90
2021/12/24 07:55:48;;;;;;;1.47;1.33;;;;;;;8.94;69.42;96549.19;6132894;28;20779;-90
2021/12/24 07:58:50;;;;;;;2.13;1.40;;;;;;;9.26;68.00;96554.94;6133144;28;20234;-90
2021/12/24 08:01:54;;;;;;;1.50;1.10;;;;;;;9.26;67.90;96552.31;6116971;28;20587;-90
2021/12/24 08:04:57;;;;;;;2.00;1.07;;;;;;;9.19;67.88;96528.34;6122264;28;20233;-91
2021/12/24 08:08:00;;;;;;;1.43;1.27;;;;;;;9.19;68.21;96533.63;6132309;28;20229;-90
2021/12/24 08:11:02;;;;;;;2.80;1.30;;;;;;;9.33;67.67;96544.66;6131981;28;20233;-90
2021/12/24 08:14:06;;;;;;;2.47;1.10;;;;;;;9.41;67.04;96550.03;6132466;28;20264;-89
2021/12/24 08:17:10;;;;;;;1.90;1.00;;;;;;;9.43;66.95;96548.09;6094821;29;20644;-91
2021/12/24 08:20:13;;;;;;;3.03;1.30;;;;;;;9.40;67.32;96538.69;6142221;28;20246;-90
2021/12/24 08:23:15;;;;;;;1.93;0.90;;;;;;;9.41;67.15;96542.16;6132525;28;20227;-89
2021/12/24 08:26:21;;;;;;;1.43;1.20;;;;;;;9.48;66.14;96546.69;6118182;29;20250;-90
2021/12/24 08:29:23;;;;;;;1.57;0.93;;;;;;;9.50;66.80;96536.00;6109002;28;20711;-90
2021/12/24 08:32:25;;;;;;;1.40;0.90;;;;;;;9.36;66.98;96553.13;6132313;28;20281;-90
2021/12/24 08:35:28;;;;;;;1.83;1.10;;;;;;;9.44;65.97;96532.16;6115364;29;20229;-90
2021/12/24 08:38:30;;;;;;;0.97;0.93;;;;;;;9.55;65.76;96539.06;6131470;28;20226;-91
2021/12/24 08:41:32;;;;;;;3.07;0.93;;;;;;;9.44;66.85;96542.69;6131514;28;20270;-90
2021/12/24 08:44:35;;;;;;;1.63;1.03;;;;;;;9.31;67.18;96526.38;6133492;28;20240;-90
2021/12/24 08:47:37;;;;;;;1.07;0.90;;;;;;;9.24;67.02;96528.75;6099885;29;20238;-90
2021/12/24 08:50:39;;;;;;;2.43;1.07;;;;;;;9.20;67.96;96514.22;6107659;29;20239;-90
2021/12/24 08:53:42;;;;;;;1.43;1.10;;;;;;;9.15;67.77;96536.69;6137388;28;20230;-92
2021/12/24 08:56:44;;;;;;;2.90;1.07;;;;;;;9.40;65.95;96537.84;6131501;29;20597;-90
2021/12/24 08:59:46;;;;;;;1.37;0.97;;;;;;;9.54;65.28;96511.06;6132034;28;20230;-90
2021/12/24 09:02:51;;;;;;;2.17;0.93;;;;;;;9.71;64.02;96539.25;6129267;29;20229;-90
2021/12/24 09:05:54;;;;;;;1.10;1.00;;;;;;;9.86;64.14;96510.63;6123649;28;20305;-90
2021/12/24 09:08:56;;;;;;;1.17;1.07;;;;;;;9.77;64.60;96514.16;6131119;29;20228;-90
2021/12/24 09:11:58;;;;;;;1.77;1.23;;;;;;;9.64;64.34;96522.38;6130241;28;20231;-90
2021/12/24 09:15:01;;;;;;;0.90;0.77;;;;;;;9.57;65.32;96530.03;6131423;28;20230;-89
2021/12/24 09:18:04;;;;;;;4.03;1.47;;;;;;;9.45;65.36;96525.09;6131252;28;20238;-90
2021/12/24 09:21:15;;;;;;;2.20;1.10;;;;;;;9.56;64.96;96541.56;6130774;28;20216;-90
2021/12/24 09:24:19;;;;;;;1.93;1.17;;;;;;;9.55;64.78;96531.97;6131328;28;20226;-90
2021/12/24 09:27:22;;;;;;;5.13;1.10;;;;;;;9.52;64.75;96542.78;6124055;28;20236;-90
2021/12/24 09:30:26;;;;;;;3.07;1.50;;;;;;;9.53;64.29;96546.25;6112271;28;20344;-90
2021/12/24 09:33:28;;;;;;;1.50;1.07;;;;;;;9.51;65.62;96554.31;6123814;28;20235;-90
2021/12/24 09:36:31;;;;;;;1.33;1.23;;;;;;;9.44;65.28;96558.50;6130461;28;20249;-90
2021/12/24 09:39:34;;;;;;;2.90;1.27;;;;;;;9.47;65.16;96546.84;6109466;28;20728;-90
2021/12/24 09:42:36;;;;;;;2.30;2.00;;;;;;;9.46;65.43;96540.75;6140344;28;20238;-90
2021/12/24 09:45:38;;;;;;;1.70;1.30;;;;;;;9.46;65.09;96561.81;6125831;28;20711;-90
2021/12/24 09:48:44;;;;;;;3.10;1.33;;;;;;;9.42;65.93;96565.69;6116589;28;20234;-90
2021/12/24 09:51:51;;;;;;;4.90;1.70;;;;;;;9.40;65.79;96569.44;6108139;28;20247;-90
2021/12/24 09:54:53;;;;;;;2.67;1.37;;;;;;;9.41;65.54;96568.47;6124260;28;20339;-90
2021/12/24 09:57:56;;;;;;;2.50;1.30;;;;;;;9.36;66.04;96553.13;6103289;28;20616;-90
2021/12/24 10:00:58;;;;;;;4.27;1.73;;;;;;;9.35;65.93;96562.00;6083933;29;20262;-90
2021/12/24 10:04:05;;;;;;;1.90;1.30;;;;;;;9.40;66.19;96562.38;6097618;29;20243;-90
2021/12/24 10:07:16;;;;;;;3.13;1.53;;;;;;;9.38;65.86;96553.81;6109116;28;20238;-89
2021/12/24 10:10:26;;;;;;;2.70;1.50;;;;;;;9.38;65.92;96547.72;6093309;29;20594;-90
2021/12/24 10:13:39;;;;;;;3.63;1.23;;;;;;;9.34;66.75;96541.91;6104245;28;20611;-90
2021/12/24 10:16:44;;;;;;;3.37;1.60;;;;;;;9.30;66.22;96551.03;6111290;28;20314;-91
2021/12/24 10:19:48;;;;;;;1.67;1.40;;;;;;;9.21;67.40;96550.09;6111010;28;20776;-90
2021/12/24 10:22:54;;;;;;;2.03;1.37;;;;;;;9.17;67.48;96546.13;6110629;28;20230;-91
2021/12/24 10:26:14;;;;;;;2.33;1.40;;;;;;;9.12;67.47;96547.50;6111480;28;20246;-90
2021/12/24 10:29:19;;;;;;;1.63;1.33;;;;;;;9.12;67.84;96535.16;6107590;28;20236;-90
2021/12/24 10:32:21;;;;;;;2.00;1.40;;;;;;;9.13;67.14;96539.47;6074201;29;20327;-90
2021/12/24 10:35:30;;;;;;;2.33;1.10;;;;;;;9.14;68.28;96545.56;6066485;29;20319;-89
2021/12/24 10:38:32;;;;;;;1.67;1.00;;;;;;;9.03;68.66;96541.28;6126584;28;20234;-90
2021/12/24 10:41:43;;;;;;;1.93;1.30;;;;;;;9.06;68.85;96525.22;6126262;28;20227;-90
2021/12/24 10:44:47;;;;;;;1.13;1.10;;;;;;;9.08;69.30;96525.91;6127621;28;20233;-90
2021/12/24 10:47:49;;;;;;;4.80;1.47;;;;;;;9.06;69.44;96533.13;6126318;28;20235;-90
2021/12/24 10:51:06;;;;;;;1.50;1.13;;;;;;;9.11;69.08;96548.47;6125863;28;20241;-90
2021/12/24 10:54:08;;;;;;;3.60;1.50;;;;;;;9.10;69.12;96552.06;6135696;28;20301;-90
2021/12/24 10:57:17;;;;;;;1.60;1.27;;;;;;;9.01;70.32;96558.19;6127014;28;20555;-90
2021/12/24 11:00:22;;;;;;;3.50;1.30;;;;;;;8.98;69.95;96542.69;6109514;28;20240;-89
2021/12/24 11:03:32;;;;;;;3.40;1.40;;;;;;;8.94;69.92;96554.44;6111378;28;20271;-90
2021/12/24 11:06:34;;;;;;;2.60;1.53;;;;;;;8.95;70.02;96553.50;6117663;28;20366;-91
2021/12/24 11:09:36;;;;;;;3.07;1.40;;;;;;;8.95;70.31;96543.78;6135045;28;20230;-90
2021/12/24 11:12:45;;;;;;;1.90;1.60;;;;;;;8.99;70.39;96552.22;6132439;28;20274;-90
2021/12/24 11:15:51;;;;;;;2.37;1.93;;;;;;;8.97;69.96;96560.28;6133061;28;20226;-90
2021/12/24 11:18:58;;;;;;;1.80;1.53;;;;;;;8.96;69.92;96544.63;6133203;28;20238;-90
2021/12/24 11:22:04;;;;;;;4.23;1.60;;;;;;;8.96;69.92;96547.25;6123244;28;20692;-90
2021/12/24 11:25:08;;;;;;;2.27;1.70;;;;;;;9.10;69.69;96531.00;6135804;28;20667;-90
2021/12/24 11:28:12;;;;;;;2.57;1.50;;;;;;;9.14;69.59;96519.22;6125079;28;20376;-90
2021/12/24 11:31:16;;;;;;;2.17;1.63;;;;;;;9.14;69.28;96541.13;6093794;28;20311;-90
2021/12/24 11:34:19;;;;;;;1.97;1.30;;;;;;;9.13;69.08;96525.47;6094348;29;20243;-90
2021/12/24 11:37:22;;;;;;;2.03;1.63;;;;;;;9.16;68.92;96517.28;6102444;29;20243;-90
2021/12/24 11:40:26;;;;;;;2.30;1.53;;;;;;;9.19;69.14;96527.50;6100909;29;20610;-90
2021/12/24 11:43:35;;;;;;;2.50;1.67;;;;;;;9.16;69.19;96523.38;6103912;28;20684;-90
2021/12/24 11:46:39;;;;;;;1.50;1.40;;;;;;;9.11;68.98;96538.75;6111104;28;20265;-89
2021/12/24 11:49:41;;;;;;;4.33;1.60;;;;;;;9.05;68.38;96535.88;6079908;29;20743;-90
2021/12/24 11:52:47;;;;;;;2.90;1.77;;;;;;;9.04;69.28;96531.59;6107992;28;20590;-91
2021/12/24 11:55:49;;;;;;;2.23;1.50;;;;;;;8.96;68.78;96515.69;6125783;28;20799;-90
2021/12/24 11:58:55;;;;;;;2.13;1.90;;;;;;;8.88;69.82;96545.34;6096373;28;20920;-90
2021/12/24 12:01:57;;;;;;;1.93;1.37;;;;;;;8.85;69.52;96527.19;6132515;28;20709;-90
2021/12/24 12:05:14;;;;;;;2.63;1.70;;;;;;;8.80;69.42;96521.50;6096585;28;20257;-89
2021/12/24 12:08:27;;;;;;;2.43;1.90;;;;;;;8.77;69.61;96511.28;6124353;28;20227;-90
2021/12/24 12:11:35;;;;;;;3.47;1.87;;;;;;;8.71;69.66;96504.78;6144958;28;20260;-90
2021/12/24 12:14:37;;;;;;;3.23;1.70;;;;;;;8.78;69.38;96508.50;6132829;28;20740;-90
2021/12/24 12:17:53;;;;;;;2.20;1.53;;;;;;;8.82;69.50;96522.19;6131404;28;20712;-89
2021/12/24 12:21:17;;;;;;;1.67;1.57;;;;;;;8.83;69.70;96523.88;6124889;28;20704;-90
2021/12/24 12:27:29;;;;;;;2.10;1.60;;;;;;;8.82;69.99;96507.25;6134532;28;20240;-89
2021/12/24 12:30:48;;;;;;;1.80;1.57;;;;;;;8.83;69.69;96529.97;6132197;28;20281;-90
2021/12/24 12:33:51;;;;;;;1.23;1.13;;;;;;;8.81;69.22;96510.00;6128726;28;20717;-90
2021/12/24 12:36:53;;;;;;;3.57;1.50;;;;;;;8.80;69.97;96517.06;6132937;28;20694;-90
2021/12/24 12:40:12;;;;;;;1.63;1.27;;;;;;;8.83;69.22;96515.97;6129714;28;20237;-90
2021/12/24 12:43:14;;;;;;;1.67;1.30;;;;;;;8.82;69.10;96506.41;6108165;28;20330;-90
2021/12/24 12:46:31;;;;;;;2.10;1.30;;;;;;;8.80;69.34;96506.56;6132293;28;20238;-90
2021/12/24 12:49:35;;;;;;;2.00;1.27;;;;;;;8.78;69.14;96519.00;6092679;28;20257;-90
2021/12/24 12:52:37;;;;;;;1.70;1.03;;;;;;;8.83;69.11;96508.91;6113165;28;20609;-89
2021/12/24 12:55:40;;;;;;;2.83;1.60;;;;;;;8.86;69.07;96505.19;6130540;28;20245;-90
2021/12/24 12:58:45;;;;;;;2.97;1.30;;;;;;;8.86;68.97;96519.16;6116532;28;20654;-90
2021/12/24 13:01:52;;;;;;;1.93;1.43;;;;;;;8.83;69.53;96518.59;6107511;28;20650;-90
2021/12/24 13:05:13;;;;;;;1.80;1.40;;;;;;;8.81;70.13;96505.59;6108497;28;20554;-90
2021/12/24 13:08:21;;;;;;;2.33;1.23;;;;;;;8.81;69.84;96510.00;6132141;28;20237;-89
2021/12/24 13:11:23;;;;;;;1.60;1.40;;;;;;;8.81;70.02;96508.22;6131071;28;20241;-89
2021/12/24 13:14:28;;;;;;;1.73;1.57;;;;;;;8.79;69.91;96523.31;6129055;28;20238;-89
2021/12/24 13:17:35;;;;;;;1.70;1.23;;;;;;;8.81;69.79;96516.09;6106807;28;20348;-90
2021/12/24 13:22:26;;;;;;;2.83;1.47;;;;;;;8.76;70.35;96523.59;6123055;28;20605;-90
2021/12/24 13:24:11;;;;;;;2.53;1.40;;;;;;;8.71;70.60;96517.09;6117687;28;20223;-91
2021/12/24 13:27:14;;;;;;;2.27;1.40;;;;;;;8.68;70.54;96515.59;6144075;28;20222;-90
2021/12/24 13:30:23;;;;;;;3.50;1.70;;;;;;;8.63;71.02;96503.81;6131228;28;20210;-90
2021/12/24 13:33:25;;;;;;;1.93;1.27;;;;;;;8.61;71.09;96509.22;6115903;28;20356;-89
2021/12/24 13:36:29;;;;;;;1.63;1.40;;;;;;;8.60;70.96;96511.97;6120744;28;20222;-89
2021/12/24 13:39:31;;;;;;;1.57;1.47;;;;;;;8.58;71.52;96514.78;6126387;28;20226;-90
2021/12/24 13:42:51;;;;;;;2.20;1.23;;;;;;;8.56;71.45;96527.22;6118069;28;20226;-90
2021/12/24 13:45:56;;;;;;;1.73;1.30;;;;;;;8.50;71.56;96530.38;6134732;28;20309;-89
2021/12/24 13:49:17;;;;;;;2.07;1.40;;;;;;;8.44;71.64;96526.53;6124953;28;20322;-90
2021/12/24 13:55:56;;;;;;;3.57;1.40;;;;;;;8.25;72.77;96534.38;6134784;28;20226;-89
2021/12/24 13:58:59;;;;;;;1.43;1.33;;;;;;;8.19;72.70;96515.66;6134743;28;20317;-89
2021/12/24 14:02:07;;;;;;;1.50;1.40;;;;;;;8.15;72.94;96518.59;6135669;28;20259;-90
2021/12/24 14:05:11;;;;;;;4.00;1.43;;;;;;;8.11;73.36;96514.56;6113924;28;20238;-89
2021/12/24 14:08:15;;;;;;;3.17;1.50;;;;;;;8.09;73.50;96521.75;6130767;28;20335;-91
2021/12/24 14:11:24;;;;;;;1.47;0.93;;;;;;;8.07;73.88;96528.97;6136707;28;20231;-89
2021/12/24 14:14:50;;;;;;;1.77;1.50;;;;;;;8.10;73.55;96526.03;6135211;28;20265;-90
2021/12/24 14:18:21;;;;;;;1.60;1.37;;;;;;;8.10;73.89;96535.72;6152098;28;20235;-89
2021/12/24 14:21:45;;;;;;;2.73;1.53;;;;;;;8.13;73.98;96538.09;6109461;28;20250;-89
2021/12/24 14:24:55;;;;;;;2.57;1.50;;;;;;;8.12;73.53;96528.53;6108202;28;20729;-89
2021/12/24 14:27:57;;;;;;;2.00;1.67;;;;;;;8.09;74.32;96529.63;6110819;28;20240;-90
2021/12/24 14:31:01;;;;;;;1.90;1.40;;;;;;;8.06;74.29;96537.81;6086625;29;20240;-89
2021/12/24 14:34:03;;;;;;;2.07;1.73;;;;;;;8.01;74.70;96531.28;6101828;28;20230;-90
2021/12/24 14:37:20;;;;;;;1.73;1.20;;;;;;;8.01;74.64;96526.84;6134558;28;20720;-91
2021/12/24 14:40:24;;;;;;;1.27;1.10;;;;;;;7.97;74.95;96535.16;6118524;28;20246;-90
2021/12/24 14:43:33;;;;;;;1.40;1.10;;;;;;;7.89;75.35;96530.56;6134309;28;20244;-89
2021/12/24 14:46:35;;;;;;;2.37;1.30;;;;;;;7.94;74.97;96523.13;6135779;28;20234;-90
2021/12/24 14:49:42;;;;;;;1.37;1.03;;;;;;;7.98;74.61;96519.28;6139312;28;20236;-90
2021/12/24 14:52:44;;;;;;;1.70;1.37;;;;;;;7.97;74.77;96525.50;6135123;28;20334;-90
2021/12/24 14:55:51;;;;;;;1.20;1.10;;;;;;;7.95;74.22;96513.44;6113562;28;20325;-90
2021/12/24 14:58:58;;;;;;;1.90;1.57;;;;;;;8.01;74.53;96520.78;6121297;28;20245;-90
2021/12/24 15:02:01;;;;;;;1.53;1.20;;;;;;;7.95;74.27;96519.53;6136362;28;20311;-89
2021/12/24 15:05:03;;;;;;;1.17;1.00;;;;;;;7.93;74.76;96504.84;6137276;28;20233;-90
2021/12/24 15:08:13;;;;;;;1.83;1.10;;;;;;;7.86;75.13;96512.47;6132800;28;20254;-90
2021/12/24 15:11:23;;;;;;;1.70;1.23;;;;;;;7.78;75.38;96514.94;6134351;28;20277;-90
2021/12/24 15:14:28;;;;;;;1.57;0.93;;;;;;;7.81;75.50;96506.78;6110036;28;20270;-89
2021/12/24 15:17:45;;;;;;;2.07;1.30;;;;;;;7.89;74.76;96511.34;6116035;28;20319;-89
2021/12/24 15:20:48;;;;;;;1.33;1.13;;;;;;;7.88;74.31;96530.72;6133988;28;20281;-89
2021/12/24 15:23:52;;;;;;;1.27;0.90;;;;;;;7.90;74.50;96528.75;6115739;28;20238;-89
2021/12/24 15:26:54;;;;;;;0.90;0.90;;;;;;;7.94;74.38;96530.16;6123265;28;20716;-90
2021/12/24 15:29:57;;;;;;;1.67;0.90;;;;;;;7.97;74.47;96522.84;6122586;28;20244;-90
2021/12/24 15:32:59;;;;;;;1.03;0.90;;;;;;;8.06;74.35;96515.97;6113021;28;20304;-89
2021/12/24 15:36:02;;;;;;;1.30;0.80;;;;;;;8.14;74.16;96555.50;6128349;28;20224;-91
2021/12/24 15:39:05;;;;;;;0.70;0.70;;;;;;;8.23;73.50;96541.56;6130645;28;20305;-90
2021/12/24 15:42:07;;;;;;;1.07;0.83;;;;;;;8.22;73.64;96523.28;6109307;28;20217;-89
2021/12/24 15:45:09;;;;;;;1.50;1.00;;;;;;;8.29;72.60;96524.41;6108518;28;20220;-91
2021/12/24 15:48:12;;;;;;;1.10;0.70;;;;;;;8.28;72.84;96523.59;6128619;28;20218;-89
2021/12/24 15:51:15;;;;;;;0.60;0.60;;;;;;;8.27;72.96;96510.59;6109374;28;20220;-90
2021/12/24 15:54:17;;;;;;;0.90;0.73;;;;;;;8.29;72.74;96521.75;6094745;28;20241;-88
2021/12/24 15:57:19;;;;;;;0.60;0.60;;;;;;;8.27;72.78;96516.66;6109955;28;20570;-89
2021/12/24 16:00:21;;;;;;;1.20;0.70;;;;;;;8.27;73.57;96524.56;6101702;28;20215;-90
2021/12/24 16:03:23;;;;;;;0.50;0.40;;;;;;;8.31;72.66;96515.44;6106029;28;20251;-90
2021/12/24 16:06:25;;;;;;;1.27;0.83;;;;;;;8.24;73.01;96500.34;6108326;28;20294;-89
2021/12/24 16:09:27;;;;;;;0.70;0.53;;;;;;;8.30;73.54;96497.16;6125066;28;20227;-89
2021/12/24 16:12:29;;;;;;;0.90;0.60;;;;;;;8.30;73.33;96491.88;6124419;28;20229;-90
2021/12/24 16:15:34;;;;;;;0.53;0.53;;;;;;;8.31;72.63;96477.78;6109139;28;20235;-89
2021/12/24 16:18:36;;;;;;;0.60;0.60;;;;;;;8.30;73.64;96487.47;6108901;28;20234;-90
2021/12/24 16:21:39;;;;;;;1.03;0.70;;;;;;;8.30;73.70;96510.28;6109577;28;20229;-89